createdAt,value
2022-11-28T00:00:08.326Z,51.42
2022-11-28T00:00:21.398Z,50.63
2022-11-28T00:00:54.950Z,50.67
2022-11-28T00:01:17.503Z,51.53
2022-11-28T00:01:33.363Z,51.33
2022-11-28T00:01:47.864Z,50.38
2022-11-28T00:02:01.941Z,50.92
2022-11-28T00:02:14.731Z,51.45
2022-11-28T00:02:27.650Z,53.30
2022-11-28T00:02:41.052Z,54.58
2022-11-28T00:02:53.816Z,54.08
2022-11-28T00:03:07.718Z,51.30
2022-11-28T00:03:22.527Z,50.05
2022-11-28T00:03:35.374Z,51.75
2022-11-28T00:03:48.708Z,52.35
2022-11-28T00:04:02.716Z,51.55
2022-11-28T00:04:15.927Z,50.55
2022-11-28T00:04:29.914Z,51.22
2022-11-28T00:04:42.979Z,51.67
2022-11-28T00:04:55.918Z,52.22
2022-11-28T00:05:11.536Z,51.47
2022-11-28T00:05:24.155Z,50.35
2022-11-28T00:05:36.879Z,51.05
2022-11-28T00:05:50.640Z,53.97
2022-11-28T00:06:04.310Z,54.60
2022-11-28T00:06:17.547Z,53.13
2022-11-28T00:06:30.748Z,52.28
2022-11-28T00:06:46.400Z,53.22
2022-11-28T00:06:59.439Z,54.78
2022-11-28T00:07:13.350Z,54.28
2022-11-28T00:07:26.173Z,52.90
2022-11-28T00:07:39.021Z,51.70
2022-11-28T00:07:53.283Z,52.22
2022-11-28T00:08:05.923Z,52.25
2022-11-28T00:08:18.864Z,52.10
2022-11-28T00:08:33.454Z,52.00
2022-11-28T00:08:46.469Z,53.40
2022-11-28T00:08:59.719Z,53.63
2022-11-28T00:09:13.525Z,53.53
2022-11-28T00:09:26.214Z,54.17
2022-11-28T00:09:39.886Z,53.38
2022-11-28T00:09:53.078Z,53.45
2022-11-28T00:10:07.895Z,53.67
2022-11-28T00:10:20.454Z,53.83
2022-11-28T00:10:33.038Z,54.28
2022-11-28T00:10:45.679Z,52.58
2022-11-28T00:10:58.368Z,52.35
2022-11-28T00:11:13.920Z,52.15
2022-11-28T00:11:27.250Z,53.05
2022-11-28T00:11:40.278Z,54.13
2022-11-28T00:11:52.966Z,55.28
2022-11-28T00:12:05.941Z,55.08
2022-11-28T00:12:19.574Z,53.65
2022-11-28T00:12:32.147Z,53.70
2022-11-28T00:12:44.754Z,53.08
2022-11-28T00:12:57.371Z,53.17
2022-11-28T00:13:10.123Z,53.35
2022-11-28T00:13:22.745Z,54.63
2022-11-28T00:13:36.832Z,54.63
2022-11-28T00:13:50.445Z,52.75
2022-11-28T00:14:03.066Z,52.20
2022-11-28T00:14:17.543Z,53.20
2022-11-28T00:14:30.128Z,53.47
2022-11-28T00:14:42.916Z,54.33
2022-11-28T00:14:55.782Z,54.85
2022-11-28T00:15:12.161Z,54.72
2022-11-28T00:15:24.733Z,52.10
2022-11-28T00:15:37.461Z,51.60
2022-11-28T00:15:55.547Z,52.25
2022-11-28T00:16:13.090Z,52.17
2022-11-28T00:16:27.019Z,53.60
2022-11-28T00:16:39.672Z,54.47
2022-11-28T00:16:52.271Z,55.00
2022-11-28T00:17:04.857Z,55.58
2022-11-28T00:17:17.461Z,55.38
2022-11-28T00:17:30.055Z,54.72
2022-11-28T00:17:43.930Z,54.78
2022-11-28T00:17:56.588Z,55.38
2022-11-28T00:18:10.476Z,54.63
2022-11-28T00:18:23.215Z,54.00
2022-11-28T00:18:36.238Z,53.63
2022-11-28T00:18:49.200Z,53.03
2022-11-28T00:19:05.243Z,52.13
2022-11-28T00:19:17.863Z,51.67
2022-11-28T00:19:30.666Z,53.34
2022-11-28T00:19:43.282Z,54.10
2022-11-28T00:19:55.872Z,54.30
2022-11-28T00:20:08.811Z,53.40
2022-11-28T00:20:21.426Z,53.17
2022-11-28T00:20:34.448Z,53.55
2022-11-28T00:20:48.016Z,53.97
2022-11-28T00:21:01.223Z,53.72
2022-11-28T00:21:15.581Z,53.72
2022-11-28T00:21:28.893Z,53.55
2022-11-28T00:21:41.720Z,54.53
2022-11-28T00:21:54.477Z,54.63
2022-11-28T00:22:08.482Z,53.75
2022-11-28T00:22:21.078Z,53.70
2022-11-28T00:22:33.716Z,53.65
2022-11-28T00:22:46.452Z,53.55
2022-11-28T00:23:00.416Z,53.33
2022-11-28T00:23:13.006Z,52.45
2022-11-28T00:23:25.594Z,51.85
2022-11-28T00:23:38.982Z,52.17
2022-11-28T00:23:52.744Z,53.28
2022-11-28T00:24:06.354Z,55.15
2022-11-28T00:24:18.954Z,56.30
2022-11-28T00:24:31.631Z,55.22
2022-11-28T00:24:44.589Z,55.72
2022-11-28T00:24:57.396Z,56.63
2022-11-28T00:25:10.971Z,55.42
2022-11-28T00:25:23.582Z,54.65
2022-11-28T00:25:36.186Z,55.35
2022-11-28T00:25:57.411Z,56.05
2022-11-28T00:26:12.242Z,55.08
2022-11-28T00:26:28.508Z,54.53
2022-11-28T00:26:42.421Z,54.15
2022-11-28T00:26:55.010Z,54.63
2022-11-28T00:27:07.658Z,55.28
2022-11-28T00:27:20.291Z,54.95
2022-11-28T00:27:34.400Z,54.15
2022-11-28T00:27:48.118Z,55.55
2022-11-28T00:28:00.751Z,56.10
2022-11-28T00:28:13.333Z,55.20
2022-11-28T00:28:25.991Z,55.13
2022-11-28T00:28:38.575Z,54.75
2022-11-28T00:28:51.347Z,54.33
2022-11-28T00:29:05.435Z,54.08
2022-11-28T00:29:19.016Z,54.38
2022-11-28T00:29:31.679Z,54.75
2022-11-28T00:29:44.281Z,55.58
2022-11-28T00:29:57.026Z,55.35
2022-11-28T00:30:10.779Z,54.35
2022-11-28T00:30:23.451Z,53.85
2022-11-28T00:30:37.858Z,54.08
2022-11-28T00:30:50.495Z,55.03
2022-11-28T00:31:03.954Z,55.70
2022-11-28T00:31:19.669Z,56.15
2022-11-28T00:31:33.742Z,55.28
2022-11-28T00:31:46.382Z,56.65
2022-11-28T00:32:00.102Z,56.83
2022-11-28T00:32:12.905Z,56.15
2022-11-28T00:32:25.599Z,55.30
2022-11-28T00:32:38.640Z,53.38
2022-11-28T00:32:51.244Z,52.95
2022-11-28T00:33:04.751Z,53.40
2022-11-28T00:33:17.517Z,53.75
2022-11-28T00:33:30.794Z,53.25
2022-11-28T00:33:44.510Z,53.33
2022-11-28T00:33:57.159Z,54.65
2022-11-28T00:34:10.443Z,54.47
2022-11-28T00:34:23.079Z,54.33
2022-11-28T00:34:35.775Z,55.35
2022-11-28T00:34:49.638Z,55.15
2022-11-28T00:35:02.582Z,54.28
2022-11-28T00:35:15.186Z,54.72
2022-11-28T00:35:27.826Z,55.00
2022-11-28T00:35:40.652Z,54.55
2022-11-28T00:35:58.939Z,53.30
2022-11-28T00:36:13.406Z,53.50
2022-11-28T00:36:26.017Z,53.70
2022-11-28T00:36:38.684Z,54.17
2022-11-28T00:36:51.264Z,55.75
2022-11-28T00:37:04.139Z,55.70
2022-11-28T00:37:17.827Z,54.83
2022-11-28T00:37:30.412Z,53.35
2022-11-28T00:37:42.986Z,52.90
2022-11-28T00:37:55.598Z,53.35
2022-11-28T00:38:09.646Z,51.88
2022-11-28T00:38:22.267Z,51.60
2022-11-28T00:38:34.929Z,51.80
2022-11-28T00:38:49.270Z,52.65
2022-11-28T00:39:01.890Z,53.30
2022-11-28T00:39:16.013Z,53.50
2022-11-28T00:39:28.924Z,52.58
2022-11-28T00:39:41.562Z,52.50
2022-11-28T00:39:54.166Z,52.95
2022-11-28T00:40:09.036Z,53.20
2022-11-28T00:40:22.051Z,53.60
2022-11-28T00:40:34.673Z,52.97
2022-11-28T00:40:47.246Z,52.45
2022-11-28T00:41:00.986Z,53.05
2022-11-28T00:41:14.972Z,54.03
2022-11-28T00:41:31.204Z,53.00
2022-11-28T00:41:44.046Z,51.95
2022-11-28T00:41:56.661Z,51.03
2022-11-28T00:42:09.298Z,50.42
2022-11-28T00:42:22.338Z,51.08
2022-11-28T00:42:35.063Z,51.88
2022-11-28T00:42:48.658Z,51.88
2022-11-28T00:43:01.256Z,52.38
2022-11-28T00:43:13.871Z,51.78
2022-11-28T00:43:26.553Z,50.80
2022-11-28T00:43:39.164Z,50.65
2022-11-28T00:43:52.634Z,51.45
2022-11-28T00:44:05.592Z,50.53
2022-11-28T00:44:19.208Z,50.95
2022-11-28T00:44:31.864Z,51.85
2022-11-28T00:44:44.652Z,52.38
2022-11-28T00:44:57.342Z,52.25
2022-11-28T00:45:10.306Z,52.20
2022-11-28T00:45:22.993Z,51.25
2022-11-28T00:45:35.775Z,51.80
2022-11-28T00:45:48.462Z,51.33
2022-11-28T00:46:02.247Z,50.25
2022-11-28T00:46:16.652Z,50.00
2022-11-28T00:46:29.921Z,51.28
2022-11-28T00:46:43.388Z,51.95
2022-11-28T00:46:55.999Z,51.67
2022-11-28T00:47:08.636Z,53.15
2022-11-28T00:47:22.267Z,53.20
2022-11-28T00:47:34.898Z,52.65
2022-11-28T00:47:48.320Z,51.80
2022-11-28T00:48:00.907Z,51.30
2022-11-28T00:48:13.576Z,52.47
2022-11-28T00:48:26.868Z,52.38
2022-11-28T00:48:40.073Z,52.63
2022-11-28T00:48:54.106Z,52.17
2022-11-28T00:49:06.996Z,51.90
2022-11-28T00:49:19.570Z,51.88
2022-11-28T00:49:32.297Z,52.22
2022-11-28T00:49:44.894Z,51.55
2022-11-28T00:49:57.541Z,52.13
2022-11-28T00:50:10.342Z,51.35
2022-11-28T00:50:23.996Z,51.08
2022-11-28T00:50:36.614Z,50.88
2022-11-28T00:50:49.971Z,50.72
2022-11-28T00:51:06.977Z,50.47
2022-11-28T00:51:22.021Z,52.03
2022-11-28T00:51:35.942Z,53.28
2022-11-28T00:51:49.508Z,53.45
2022-11-28T00:52:02.084Z,54.03
2022-11-28T00:52:14.658Z,53.67
2022-11-28T00:52:27.353Z,53.25
2022-11-28T00:52:39.966Z,52.92
2022-11-28T00:52:52.836Z,51.97
2022-11-28T00:53:05.459Z,52.00
2022-11-28T00:53:19.518Z,52.10
2022-11-28T00:53:33.122Z,52.00
2022-11-28T00:53:48.061Z,51.15
2022-11-28T00:54:04.585Z,50.15
2022-11-28T00:54:17.188Z,50.22
2022-11-28T00:54:29.758Z,50.20
2022-11-28T00:54:43.576Z,49.78
2022-11-28T00:54:56.556Z,49.78
2022-11-28T00:55:09.431Z,50.05
2022-11-28T00:55:22.042Z,50.30
2022-11-28T00:55:34.668Z,50.05
2022-11-28T00:55:47.529Z,49.65
2022-11-28T00:56:00.160Z,50.58
2022-11-28T00:56:15.363Z,51.70
2022-11-28T00:56:31.271Z,50.92
2022-11-28T00:56:43.892Z,50.17
2022-11-28T00:56:56.764Z,50.17
2022-11-28T00:57:09.342Z,50.30
2022-11-28T00:57:21.937Z,49.67
2022-11-28T00:57:34.630Z,49.45
2022-11-28T00:57:48.266Z,49.40
2022-11-28T00:58:00.825Z,49.67
2022-11-28T00:58:13.603Z,50.03
2022-11-28T00:58:26.295Z,50.17
2022-11-28T00:58:40.371Z,49.85
2022-11-28T00:58:53.296Z,50.05
2022-11-28T00:59:07.314Z,51.03
2022-11-28T00:59:20.914Z,50.53
2022-11-28T00:59:33.501Z,49.88
2022-11-28T00:59:46.078Z,49.55
2022-11-28T00:59:58.701Z,50.30
2022-11-28T01:00:12.392Z,49.95
2022-11-28T01:00:25.219Z,49.60
2022-11-28T01:00:38.518Z,49.80
2022-11-28T01:00:51.173Z,48.15
2022-11-28T01:01:08.705Z,47.40
2022-11-28T01:01:25.167Z,48.58
2022-11-28T01:01:40.457Z,48.08
2022-11-28T01:01:53.193Z,48.08
2022-11-28T01:02:05.854Z,48.95
2022-11-28T01:02:18.742Z,48.28
2022-11-28T01:02:31.464Z,47.20
2022-11-28T01:02:45.241Z,47.35
2022-11-28T01:02:58.106Z,48.15
2022-11-28T01:03:10.700Z,49.88
2022-11-28T01:03:23.308Z,50.47
2022-11-28T01:03:36.034Z,49.95
2022-11-28T01:03:50.530Z,51.33
2022-11-28T01:04:06.594Z,51.42
2022-11-28T01:04:19.233Z,50.20
2022-11-28T01:04:31.867Z,50.33
2022-11-28T01:04:45.412Z,50.53
2022-11-28T01:04:58.069Z,50.17
2022-11-28T01:05:10.660Z,50.28
2022-11-28T01:05:23.446Z,50.20
2022-11-28T01:05:41.379Z,49.38
2022-11-28T01:05:54.301Z,49.03
2022-11-28T01:06:08.980Z,48.80
2022-11-28T01:06:22.852Z,48.58
2022-11-28T01:06:37.741Z,50.10
2022-11-28T01:06:51.970Z,50.58
2022-11-28T01:07:04.782Z,49.60
2022-11-28T01:07:17.487Z,48.72
2022-11-28T01:07:33.105Z,48.42
2022-11-28T01:07:45.740Z,48.63
2022-11-28T01:07:58.420Z,48.42
2022-11-28T01:08:11.134Z,48.30
2022-11-28T01:08:26.202Z,47.90
2022-11-28T01:08:39.039Z,47.78
2022-11-28T01:08:52.367Z,47.58
2022-11-28T01:09:08.716Z,48.03
2022-11-28T01:09:24.292Z,47.55
2022-11-28T01:09:37.910Z,48.70
2022-11-28T01:09:50.555Z,49.85
2022-11-28T01:10:03.751Z,49.78
2022-11-28T01:10:16.331Z,50.22
2022-11-28T01:10:28.974Z,49.80
2022-11-28T01:10:42.275Z,49.30
2022-11-28T01:10:55.002Z,49.58
2022-11-28T01:11:12.308Z,49.58
2022-11-28T01:11:26.141Z,49.22
2022-11-28T01:11:39.494Z,50.25
2022-11-28T01:11:53.885Z,51.45
2022-11-28T01:12:06.654Z,50.90
2022-11-28T01:12:19.278Z,50.15
2022-11-28T01:12:32.988Z,49.45
2022-11-28T01:12:45.639Z,49.80
2022-11-28T01:12:58.264Z,50.05
2022-11-28T01:13:11.964Z,49.50
2022-11-28T01:13:24.692Z,48.55
2022-11-28T01:13:37.292Z,48.90
2022-11-28T01:13:51.644Z,49.45
2022-11-28T01:14:04.598Z,49.10
2022-11-28T01:14:19.037Z,49.22
2022-11-28T01:14:32.008Z,48.95
2022-11-28T01:14:44.697Z,48.80
2022-11-28T01:14:58.371Z,48.80
2022-11-28T01:15:13.255Z,48.75
2022-11-28T01:15:27.127Z,48.40
2022-11-28T01:15:42.118Z,48.40
2022-11-28T01:15:55.984Z,49.25
2022-11-28T01:16:09.843Z,49.45
2022-11-28T01:16:22.733Z,48.63
2022-11-28T01:16:35.570Z,48.45
2022-11-28T01:16:48.693Z,48.75
2022-11-28T01:17:02.409Z,48.15
2022-11-28T01:17:15.024Z,49.08
2022-11-28T01:17:27.762Z,50.08
2022-11-28T01:17:40.519Z,51.60
2022-11-28T01:17:53.066Z,51.70
2022-11-28T01:18:05.789Z,50.20
2022-11-28T01:18:18.399Z,50.22
2022-11-28T01:18:31.103Z,49.97
2022-11-28T01:18:44.718Z,50.10
2022-11-28T01:18:58.030Z,50.25
2022-11-28T01:19:10.930Z,50.20
2022-11-28T01:19:23.578Z,49.75
2022-11-28T01:19:36.184Z,48.03
2022-11-28T01:19:49.761Z,46.55
2022-11-28T01:20:04.694Z,47.38
2022-11-28T01:20:17.480Z,49.10
2022-11-28T01:20:30.094Z,49.60
2022-11-28T01:20:42.710Z,48.03
2022-11-28T01:20:55.314Z,47.70
2022-11-28T01:21:08.558Z,47.53
2022-11-28T01:21:22.843Z,46.47
2022-11-28T01:21:35.692Z,46.63
2022-11-28T01:21:49.128Z,46.63
2022-11-28T01:22:01.708Z,47.35
2022-11-28T01:22:14.298Z,48.15
2022-11-28T01:22:26.927Z,47.75
2022-11-28T01:22:39.575Z,47.60
2022-11-28T01:22:53.152Z,46.50
2022-11-28T01:23:06.243Z,46.70
2022-11-28T01:23:19.329Z,48.00
2022-11-28T01:23:34.010Z,48.63
2022-11-28T01:23:46.863Z,47.53
2022-11-28T01:23:59.594Z,46.90
2022-11-28T01:24:13.258Z,48.38
2022-11-28T01:24:25.836Z,48.67
2022-11-28T01:24:38.441Z,47.60
2022-11-28T01:24:51.127Z,47.05
2022-11-28T01:25:04.123Z,47.25
2022-11-28T01:25:16.882Z,47.60
2022-11-28T01:25:29.702Z,46.97
2022-11-28T01:25:42.346Z,45.90
2022-11-28T01:25:57.108Z,44.50
2022-11-28T01:26:12.493Z,44.40
2022-11-28T01:26:26.667Z,45.90
2022-11-28T01:26:40.756Z,46.53
2022-11-28T01:26:53.311Z,46.80
2022-11-28T01:27:05.896Z,48.17
2022-11-28T01:27:19.731Z,47.55
2022-11-28T01:27:32.344Z,47.38
2022-11-28T01:27:44.933Z,47.17
2022-11-28T01:27:57.579Z,46.83
2022-11-28T01:28:10.212Z,46.97
2022-11-28T01:28:23.022Z,48.03
2022-11-28T01:28:36.254Z,46.47
2022-11-28T01:28:50.216Z,45.92
2022-11-28T01:29:02.866Z,47.08
2022-11-28T01:29:16.383Z,48.00
2022-11-28T01:29:29.001Z,47.22
2022-11-28T01:29:41.646Z,46.20
2022-11-28T01:29:54.247Z,46.78
2022-11-28T01:30:08.266Z,46.58
2022-11-28T01:30:21.938Z,46.53
2022-11-28T01:30:34.610Z,47.85
2022-11-28T01:30:47.301Z,48.80
2022-11-28T01:31:04.762Z,50.40
2022-11-28T01:31:20.355Z,49.33
2022-11-28T01:31:33.354Z,47.35
2022-11-28T01:31:47.347Z,47.10
2022-11-28T01:32:00.032Z,47.53
2022-11-28T01:32:12.648Z,47.00
2022-11-28T01:32:25.282Z,46.42
2022-11-28T01:32:37.898Z,47.33
2022-11-28T01:32:50.510Z,48.53
2022-11-28T01:33:03.136Z,47.85
2022-11-28T01:33:15.786Z,49.08
2022-11-28T01:33:29.346Z,49.60
2022-11-28T01:33:42.166Z,48.78
2022-11-28T01:33:55.212Z,48.92
2022-11-28T01:34:07.834Z,49.05
2022-11-28T01:34:20.496Z,48.47
2022-11-28T01:34:33.149Z,47.85
2022-11-28T01:34:46.744Z,47.13
2022-11-28T01:34:59.349Z,47.20
2022-11-28T01:35:12.144Z,47.05
2022-11-28T01:35:24.771Z,48.03
2022-11-28T01:35:37.374Z,48.25
2022-11-28T01:35:55.178Z,47.35
2022-11-28T01:36:09.758Z,45.92
2022-11-28T01:36:22.788Z,46.03
2022-11-28T01:36:35.432Z,45.85
2022-11-28T01:36:48.022Z,46.72
2022-11-28T01:37:00.633Z,47.22
2022-11-28T01:37:14.231Z,46.65
2022-11-28T01:37:29.086Z,45.60
2022-11-28T01:37:41.734Z,45.63
2022-11-28T01:37:54.375Z,46.47
2022-11-28T01:38:06.943Z,45.90
2022-11-28T01:38:19.460Z,45.85
2022-11-28T01:38:34.234Z,45.33
2022-11-28T01:38:47.409Z,45.28
2022-11-28T01:39:01.095Z,45.40
2022-11-28T01:39:15.738Z,43.53
2022-11-28T01:39:28.353Z,43.00
2022-11-28T01:39:40.959Z,44.53
2022-11-28T01:39:53.632Z,45.08
2022-11-28T01:40:07.745Z,44.22
2022-11-28T01:40:20.933Z,44.33
2022-11-28T01:40:33.581Z,43.65
2022-11-28T01:40:48.030Z,43.45
2022-11-28T01:41:01.192Z,44.15
2022-11-28T01:41:14.960Z,45.05
2022-11-28T01:41:28.841Z,43.75
2022-11-28T01:41:41.600Z,43.15
2022-11-28T01:41:55.154Z,44.95
2022-11-28T01:42:07.820Z,46.17
2022-11-28T01:42:20.880Z,45.13
2022-11-28T01:42:33.452Z,44.97
2022-11-28T01:42:46.026Z,44.80
2022-11-28T01:42:58.614Z,45.15
2022-11-28T01:43:11.274Z,44.83
2022-11-28T01:43:25.783Z,44.72
2022-11-28T01:43:38.725Z,45.53
2022-11-28T01:44:00.778Z,46.45
2022-11-28T01:44:46.502Z,46.53
2022-11-28T01:45:08.014Z,45.90
2022-11-28T01:45:23.635Z,45.03
2022-11-28T01:45:36.360Z,45.42
2022-11-28T01:45:49.148Z,46.30
2022-11-28T01:46:02.318Z,47.10
2022-11-28T01:46:14.969Z,46.25
2022-11-28T01:46:28.777Z,45.22
2022-11-28T01:46:43.465Z,46.13
2022-11-28T01:46:56.408Z,47.63
2022-11-28T01:47:09.151Z,46.45
2022-11-28T01:47:25.897Z,46.03
2022-11-28T01:47:38.652Z,45.55
2022-11-28T01:47:53.356Z,45.45
2022-11-28T01:48:07.677Z,44.92
2022-11-28T01:48:26.027Z,45.30
2022-11-28T01:48:41.431Z,45.50
2022-11-28T01:48:56.725Z,45.38
2022-11-28T01:49:14.163Z,45.47
2022-11-28T01:49:29.940Z,44.45
2022-11-28T01:49:44.222Z,45.35
2022-11-28T01:49:57.904Z,45.60
2022-11-28T01:50:11.640Z,45.50
2022-11-28T01:50:25.015Z,45.63
2022-11-28T01:50:39.034Z,46.65
2022-11-28T01:50:55.676Z,47.05
2022-11-28T01:51:11.176Z,45.98
2022-11-28T01:51:24.600Z,45.10
2022-11-28T01:51:40.470Z,45.92
2022-11-28T01:51:56.137Z,46.08
2022-11-28T01:52:13.391Z,45.53
2022-11-28T01:52:26.870Z,45.38
2022-11-28T01:52:44.617Z,45.22
2022-11-28T01:53:01.811Z,44.78
2022-11-28T01:53:14.763Z,44.53
2022-11-28T01:53:31.142Z,45.38
2022-11-28T01:53:48.375Z,46.28
2022-11-28T01:54:02.162Z,46.22
2022-11-28T01:54:17.235Z,45.88
2022-11-28T01:54:31.377Z,45.05
2022-11-28T01:54:48.490Z,44.05
2022-11-28T01:55:03.291Z,44.78
2022-11-28T01:55:22.050Z,44.90
2022-11-28T01:55:40.084Z,45.03
2022-11-28T01:55:58.006Z,46.17
2022-11-28T01:56:15.594Z,45.53
2022-11-28T01:56:32.167Z,45.15
2022-11-28T01:56:51.296Z,44.45
2022-11-28T01:57:08.168Z,43.85
2022-11-28T01:57:24.196Z,44.80
2022-11-28T01:57:36.936Z,45.38
2022-11-28T01:57:49.891Z,44.70
2022-11-28T01:58:02.621Z,43.90
2022-11-28T01:58:15.591Z,43.40
2022-11-28T01:58:31.748Z,43.40
2022-11-28T01:58:49.042Z,44.22
2022-11-28T01:59:07.820Z,44.40
2022-11-28T01:59:23.977Z,44.67
2022-11-28T01:59:41.939Z,43.55
2022-11-28T02:00:00.925Z,43.10
2022-11-28T02:00:15.875Z,42.33
2022-11-28T02:00:28.568Z,42.83
2022-11-28T02:00:41.261Z,43.85
2022-11-28T02:00:54.147Z,42.90
2022-11-28T02:01:09.529Z,41.72
2022-11-28T02:01:24.567Z,41.30
2022-11-28T02:01:37.864Z,41.40
2022-11-28T02:01:50.544Z,42.53
2022-11-28T02:02:08.000Z,43.63
2022-11-28T02:02:25.720Z,43.35
2022-11-28T02:02:43.089Z,43.50
2022-11-28T02:03:00.805Z,43.38
2022-11-28T02:03:17.662Z,43.53
2022-11-28T02:03:41.417Z,44.13
2022-11-28T02:03:55.891Z,43.75
2022-11-28T02:04:09.606Z,44.08
2022-11-28T02:04:26.026Z,44.13
2022-11-28T02:04:38.661Z,43.22
2022-11-28T02:04:52.368Z,43.17
2022-11-28T02:05:05.945Z,43.20
2022-11-28T02:05:22.299Z,43.05
2022-11-28T02:05:35.552Z,42.28
2022-11-28T02:05:50.601Z,41.78
2022-11-28T02:06:03.395Z,41.95
2022-11-28T02:06:19.198Z,41.67
2022-11-28T02:06:33.631Z,42.30
2022-11-28T02:06:46.262Z,43.05
2022-11-28T02:06:58.851Z,43.20
2022-11-28T02:07:11.735Z,42.83
2022-11-28T02:07:24.805Z,42.65
2022-11-28T02:07:38.430Z,42.17
2022-11-28T02:07:52.367Z,42.40
2022-11-28T02:08:07.211Z,42.95
2022-11-28T02:08:20.204Z,42.92
2022-11-28T02:08:34.481Z,43.45
2022-11-28T02:08:50.878Z,43.00
2022-11-28T02:09:06.156Z,42.58
2022-11-28T02:09:19.730Z,42.88
2022-11-28T02:09:32.319Z,42.55
2022-11-28T02:09:44.960Z,43.00
2022-11-28T02:09:57.866Z,42.67
2022-11-28T02:10:15.302Z,41.78
2022-11-28T02:10:32.827Z,41.58
2022-11-28T02:11:10.190Z,41.90
2022-11-28T02:11:47.946Z,41.75
2022-11-28T02:12:16.169Z,42.78
2022-11-28T02:12:41.790Z,41.70
2022-11-28T02:13:10.065Z,42.28
2022-11-28T02:13:37.077Z,41.17
2022-11-28T02:13:58.219Z,40.30
2022-11-28T02:14:21.512Z,41.63
2022-11-28T02:14:50.114Z,42.70
2022-11-28T02:15:18.654Z,40.72
2022-11-28T02:15:56.764Z,41.80
2022-11-28T02:16:31.191Z,41.03
2022-11-28T02:16:54.274Z,40.80
2022-11-28T02:17:18.494Z,40.70
2022-11-28T02:17:45.192Z,41.75
2022-11-28T02:18:13.332Z,41.60
2022-11-28T02:18:47.479Z,42.38
2022-11-28T02:19:33.256Z,42.70
2022-11-28T02:20:19.978Z,41.83
2022-11-28T02:21:10.730Z,42.50
2022-11-28T02:21:35.562Z,43.88
2022-11-28T02:21:58.920Z,41.80
2022-11-28T02:22:19.494Z,42.53
2022-11-28T02:22:39.654Z,42.78
2022-11-28T02:23:03.550Z,42.20
2022-11-28T02:23:21.812Z,42.05
2022-11-28T02:23:58.958Z,40.95
2022-11-28T02:24:57.403Z,40.15
2022-11-28T02:25:36.897Z,38.05
2022-11-28T02:26:17.591Z,37.90
2022-11-28T02:27:02.242Z,37.33
2022-11-28T02:27:26.411Z,36.53
2022-11-28T02:28:02.746Z,38.95
2022-11-28T02:28:52.712Z,39.38
2022-11-28T02:29:41.728Z,37.97
2022-11-28T02:30:09.123Z,38.60
2022-11-28T02:30:27.316Z,39.20
2022-11-28T02:30:52.649Z,39.55
2022-11-28T02:31:22.332Z,39.35
2022-11-28T02:32:03.719Z,39.53
2022-11-28T02:32:33.306Z,39.65
2022-11-28T02:33:07.930Z,39.30
2022-11-28T02:33:25.985Z,40.15
2022-11-28T02:33:43.750Z,39.70
2022-11-28T02:34:00.900Z,38.53
2022-11-28T02:34:20.999Z,38.97
2022-11-28T02:34:45.664Z,39.53
2022-11-28T02:35:08.744Z,38.78
2022-11-28T02:35:27.359Z,39.53
2022-11-28T02:35:50.758Z,39.85
2022-11-28T02:36:12.188Z,39.17
2022-11-28T02:36:31.166Z,40.10
2022-11-28T02:36:50.605Z,39.35
2022-11-28T02:37:07.573Z,38.67
2022-11-28T02:37:27.970Z,38.65
2022-11-28T02:37:48.066Z,38.28
2022-11-28T02:38:08.813Z,39.33
2022-11-28T02:38:29.570Z,40.33
2022-11-28T02:38:53.058Z,39.92
2022-11-28T02:39:13.844Z,38.00
2022-11-28T02:39:34.306Z,40.05
2022-11-28T02:39:56.198Z,40.72
2022-11-28T02:40:17.421Z,40.80
2022-11-28T02:40:38.144Z,40.10
2022-11-28T02:40:59.019Z,39.25
2022-11-28T02:41:21.065Z,40.38
2022-11-28T02:41:42.154Z,39.70
2022-11-28T02:42:02.724Z,40.75
2022-11-28T02:42:20.630Z,41.08
2022-11-28T02:42:42.530Z,40.58
2022-11-28T02:43:06.069Z,40.90
2022-11-28T02:43:29.740Z,40.50
2022-11-28T02:43:49.426Z,39.70
2022-11-28T02:44:10.127Z,39.95
2022-11-28T02:44:31.634Z,39.90
2022-11-28T02:44:55.839Z,39.13
2022-11-28T02:45:13.745Z,38.47
2022-11-28T02:45:32.357Z,37.75
2022-11-28T02:45:53.481Z,39.10
2022-11-28T02:46:14.892Z,39.13
2022-11-28T02:46:32.629Z,38.42
2022-11-28T02:46:52.820Z,37.13
2022-11-28T02:47:12.780Z,37.17
2022-11-28T02:47:32.178Z,37.60
2022-11-28T02:47:50.472Z,38.28
2022-11-28T02:48:05.743Z,38.10
2022-11-28T02:48:28.177Z,37.90
2022-11-28T02:48:46.938Z,37.80
2022-11-28T02:49:03.563Z,38.47
2022-11-28T02:49:22.460Z,37.28
2022-11-28T02:49:39.470Z,37.08
2022-11-28T02:49:58.639Z,37.90
2022-11-28T02:50:17.295Z,38.22
2022-11-28T02:50:34.844Z,38.45
2022-11-28T02:50:53.621Z,38.05
2022-11-28T02:51:11.498Z,37.70
2022-11-28T02:51:30.564Z,38.40
2022-11-28T02:51:49.715Z,36.97
2022-11-28T02:52:07.717Z,36.60
2022-11-28T02:52:26.513Z,37.30
2022-11-28T02:52:45.783Z,37.17
2022-11-28T02:53:06.250Z,37.60
2022-11-28T02:53:23.138Z,36.53
2022-11-28T02:53:37.819Z,37.33
2022-11-28T02:53:52.095Z,37.22
2022-11-28T02:54:08.822Z,35.92
2022-11-28T02:54:23.413Z,35.83
2022-11-28T02:54:38.469Z,36.55
2022-11-28T02:54:52.284Z,37.05
2022-11-28T02:55:06.997Z,37.40
2022-11-28T02:55:21.479Z,37.53
2022-11-28T02:55:39.085Z,37.33
2022-11-28T02:55:54.247Z,36.88
2022-11-28T02:56:11.009Z,37.58
2022-11-28T02:56:25.071Z,38.30
2022-11-28T02:56:37.985Z,37.25
2022-11-28T02:56:51.981Z,36.15
2022-11-28T02:57:04.952Z,35.75
2022-11-28T02:57:18.549Z,35.40
2022-11-28T02:57:36.938Z,36.45
2022-11-28T02:57:53.293Z,38.15
2022-11-28T02:58:06.030Z,38.28
2022-11-28T02:58:18.832Z,37.20
2022-11-28T02:58:31.426Z,36.38
2022-11-28T02:58:45.039Z,36.78
2022-11-28T02:58:57.675Z,37.47
2022-11-28T02:59:31.314Z,37.35
2022-11-28T02:59:49.149Z,36.63
2022-11-28T03:00:03.714Z,37.05
2022-11-28T03:00:28.848Z,37.28
2022-11-28T03:00:44.341Z,37.45
2022-11-28T03:00:57.562Z,37.88
2022-11-28T03:01:18.288Z,38.35
2022-11-28T03:01:35.763Z,38.22
2022-11-28T03:01:48.602Z,37.53
2022-11-28T03:02:02.193Z,37.13
2022-11-28T03:02:23.047Z,37.05
2022-11-28T03:02:36.020Z,37.30
2022-11-28T03:02:51.748Z,37.50
2022-11-28T03:03:27.213Z,37.15
2022-11-28T03:04:03.479Z,36.95
2022-11-28T03:04:25.333Z,37.33
2022-11-28T03:04:50.010Z,37.88
2022-11-28T03:05:11.026Z,36.85
2022-11-28T03:05:32.532Z,37.30
2022-11-28T03:05:55.529Z,38.35
2022-11-28T03:06:13.310Z,38.28
2022-11-28T03:06:38.734Z,37.15
2022-11-28T03:07:02.051Z,36.63
2022-11-28T03:07:29.177Z,36.85
2022-11-28T03:08:00.535Z,36.95
2022-11-28T03:08:29.190Z,37.00
2022-11-28T03:08:55.902Z,36.30
2022-11-28T03:09:44.638Z,36.40
2022-11-28T03:10:08.970Z,36.75
2022-11-28T03:10:30.538Z,36.92
2022-11-28T03:10:50.775Z,37.70
2022-11-28T03:11:15.279Z,35.47
2022-11-28T03:11:42.194Z,35.38
2022-11-28T03:12:08.539Z,35.58
2022-11-28T03:12:30.570Z,35.63
2022-11-28T03:12:56.122Z,35.22
2022-11-28T03:13:21.969Z,37.38
2022-11-28T03:13:41.716Z,37.35
2022-11-28T03:13:59.055Z,36.13
2022-11-28T03:14:22.499Z,35.50
2022-11-28T03:14:46.833Z,35.78
2022-11-28T03:15:02.489Z,37.45
2022-11-28T03:15:20.209Z,36.75
2022-11-28T03:15:44.651Z,35.80
2022-11-28T03:16:07.588Z,36.47
2022-11-28T03:16:27.764Z,36.15
2022-11-28T03:16:48.523Z,35.97
2022-11-28T03:17:13.439Z,35.58
2022-11-28T03:17:38.978Z,36.67
2022-11-28T03:18:03.071Z,35.00
2022-11-28T03:18:23.510Z,35.35
2022-11-28T03:18:40.469Z,35.90
2022-11-28T03:19:02.230Z,35.75
2022-11-28T03:19:22.497Z,35.63
2022-11-28T03:19:38.712Z,35.65
2022-11-28T03:20:00.119Z,36.00
2022-11-28T03:20:20.254Z,37.08
2022-11-28T03:20:44.957Z,36.15
2022-11-28T03:21:02.158Z,34.85
2022-11-28T03:21:24.037Z,36.05
2022-11-28T03:21:40.617Z,36.60
2022-11-28T03:22:04.015Z,36.85
2022-11-28T03:22:24.688Z,36.92
2022-11-28T03:22:43.982Z,35.75
2022-11-28T03:23:11.169Z,36.53
2022-11-28T03:23:32.140Z,35.45
2022-11-28T03:23:49.086Z,35.58
2022-11-28T03:24:06.129Z,35.95
2022-11-28T03:24:25.553Z,35.80
2022-11-28T03:24:45.397Z,35.17
2022-11-28T03:25:03.470Z,35.40
2022-11-28T03:25:27.662Z,36.15
2022-11-28T03:25:50.449Z,35.17
2022-11-28T03:26:09.614Z,35.78
2022-11-28T03:26:29.166Z,35.83
2022-11-28T03:26:48.295Z,35.58
2022-11-28T03:27:08.967Z,35.20
2022-11-28T03:27:26.366Z,35.45
2022-11-28T03:27:44.691Z,35.60